createdAt,value
2023-05-06T00:00:03.091Z,0.00
2023-05-06T00:01:03.084Z,0.00
2023-05-06T00:02:03.047Z,0.00
2023-05-06T00:03:03.084Z,0.00
2023-05-06T00:04:03.288Z,0.00
2023-05-06T00:05:03.028Z,0.00
2023-05-06T00:06:03.013Z,0.00
2023-05-06T00:07:02.989Z,0.00
2023-05-06T00:08:02.970Z,0.00
2023-05-06T00:09:02.970Z,0.00
2023-05-06T00:10:02.949Z,0.00
2023-05-06T00:11:02.971Z,0.00
2023-05-06T00:12:02.935Z,0.00
2023-05-06T00:13:02.936Z,0.00
2023-05-06T00:14:02.929Z,0.00
2023-05-06T00:15:02.927Z,0.00
2023-05-06T00:16:02.957Z,0.00
2023-05-06T00:17:02.858Z,0.00
2023-05-06T00:18:02.909Z,0.00
2023-05-06T00:19:02.859Z,0.00
2023-05-06T00:20:02.814Z,0.00
2023-05-06T00:21:03.034Z,0.00
2023-05-06T00:22:02.796Z,0.00
2023-05-06T00:23:02.794Z,0.00
2023-05-06T00:24:02.771Z,0.00
2023-05-06T00:25:02.770Z,0.00
2023-05-06T00:26:02.737Z,0.00
2023-05-06T00:27:02.758Z,0.00
2023-05-06T00:28:02.725Z,0.00
2023-05-06T00:29:02.707Z,0.00
2023-05-06T00:30:02.698Z,0.00
2023-05-06T00:31:02.692Z,0.00
2023-05-06T00:32:02.686Z,0.00
2023-05-06T00:33:02.752Z,0.00
2023-05-06T00:34:02.629Z,0.00
2023-05-06T00:35:02.625Z,0.00
2023-05-06T00:36:02.605Z,0.00
2023-05-06T00:37:02.616Z,0.00
2023-05-06T00:38:02.578Z,0.00
2023-05-06T00:39:02.668Z,0.00
2023-05-06T00:40:02.591Z,0.00
2023-05-06T00:41:02.544Z,0.00
2023-05-06T00:42:02.567Z,0.00
2023-05-06T00:43:02.513Z,0.00
2023-05-06T00:44:02.509Z,0.00
2023-05-06T00:45:02.498Z,0.00
2023-05-06T00:46:02.516Z,0.00
2023-05-06T00:47:02.522Z,0.00
2023-05-06T00:48:02.488Z,0.00
2023-05-06T00:49:02.471Z,0.00
2023-05-06T00:50:02.457Z,0.00
2023-05-06T00:51:02.430Z,0.00
2023-05-06T00:52:02.400Z,0.00
2023-05-06T00:53:02.417Z,0.00
2023-05-06T00:54:02.380Z,0.00
2023-05-06T00:55:02.366Z,0.00
2023-05-06T00:56:02.367Z,0.00
2023-05-06T00:57:02.344Z,0.00
2023-05-06T00:58:02.361Z,0.00
2023-05-06T00:59:02.317Z,0.00
2023-05-06T01:00:02.300Z,0.00
2023-05-06T01:01:02.383Z,0.00
2023-05-06T01:02:02.294Z,0.00
2023-05-06T01:03:02.388Z,0.00
2023-05-06T01:04:02.306Z,0.00
2023-05-06T01:05:02.341Z,0.00
2023-05-06T01:06:02.222Z,0.00
2023-05-06T01:07:02.218Z,0.00
2023-05-06T01:08:02.215Z,0.00
2023-05-06T01:09:02.229Z,0.00
2023-05-06T01:10:02.170Z,0.00
2023-05-06T01:11:02.163Z,0.00
2023-05-06T01:12:02.157Z,0.00
2023-05-06T01:13:02.164Z,0.00
2023-05-06T01:14:02.187Z,0.00
2023-05-06T01:15:02.117Z,0.00
2023-05-06T01:16:02.094Z,0.00
2023-05-06T01:17:02.231Z,0.00
2023-05-06T01:18:02.891Z,0.00
2023-05-06T01:19:02.056Z,0.00
2023-05-06T01:20:02.058Z,0.00
2023-05-06T01:21:02.047Z,0.00
2023-05-06T01:22:02.022Z,0.00
2023-05-06T01:23:02.007Z,0.00
2023-05-06T01:24:02.026Z,0.00
2023-05-06T01:25:02.166Z,0.00
2023-05-06T01:26:01.956Z,0.00
2023-05-06T01:27:01.967Z,0.00
2023-05-06T01:28:01.948Z,0.00
2023-05-06T01:29:01.938Z,0.00
2023-05-06T01:30:01.948Z,0.00
2023-05-06T01:31:01.953Z,0.00
2023-05-06T01:32:02.008Z,0.00
2023-05-06T01:33:01.942Z,0.00
2023-05-06T01:34:01.886Z,0.00
2023-05-06T01:35:01.850Z,0.00
2023-05-06T01:36:02.025Z,0.00
2023-05-06T01:37:02.688Z,0.00
2023-05-06T01:38:01.813Z,0.00
2023-05-06T01:39:01.803Z,0.00
2023-05-06T01:40:01.833Z,0.00
2023-05-06T01:41:01.811Z,0.00
2023-05-06T01:42:01.785Z,0.00
2023-05-06T01:43:01.789Z,0.00
2023-05-06T01:44:01.764Z,0.00
2023-05-06T01:45:01.757Z,0.00
2023-05-06T01:46:01.762Z,0.00
2023-05-06T01:47:01.694Z,0.00
2023-05-06T01:48:01.742Z,0.00
2023-05-06T01:49:01.810Z,0.00
2023-05-06T01:50:01.656Z,0.00
2023-05-06T01:51:01.652Z,0.00
2023-05-06T01:52:01.677Z,0.00
2023-05-06T01:53:01.624Z,0.00
2023-05-06T01:54:01.657Z,0.00
2023-05-06T01:55:01.592Z,0.00
2023-05-06T01:56:02.309Z,0.00
2023-05-06T01:57:01.564Z,0.00
2023-05-06T01:58:01.586Z,0.00
2023-05-06T01:59:01.543Z,0.00
2023-05-06T02:00:01.535Z,0.00
2023-05-06T02:01:01.529Z,0.00
2023-05-06T02:02:01.577Z,0.00
2023-05-06T02:03:01.576Z,0.00
2023-05-06T02:04:01.793Z,0.00
2023-05-06T02:05:01.462Z,0.00
2023-05-06T02:06:01.447Z,0.00
2023-05-06T02:07:01.433Z,0.00
2023-05-06T02:08:01.428Z,0.00
2023-05-06T02:09:01.450Z,0.00
2023-05-06T02:10:01.427Z,0.00
2023-05-06T02:11:01.373Z,0.00
2023-05-06T02:12:01.366Z,0.00
2023-05-06T02:13:01.434Z,0.00
2023-05-06T02:14:01.377Z,0.00
2023-05-06T02:15:01.336Z,0.00
2023-05-06T02:16:02.105Z,0.00
2023-05-06T02:17:02.279Z,0.00
2023-05-06T02:18:01.322Z,0.00
2023-05-06T02:19:01.316Z,0.00
2023-05-06T02:20:01.302Z,0.00
2023-05-06T02:21:01.267Z,0.00
2023-05-06T02:22:01.258Z,0.00
2023-05-06T02:23:01.260Z,0.00
2023-05-06T02:24:01.251Z,0.00
2023-05-06T02:25:01.261Z,0.00
2023-05-06T02:26:01.190Z,0.00
2023-05-06T02:27:01.176Z,0.00
2023-05-06T02:28:01.183Z,0.00
2023-05-06T02:29:01.140Z,0.00
2023-05-06T02:30:01.208Z,0.00
2023-05-06T02:31:01.169Z,0.00
2023-05-06T02:32:01.140Z,0.00
2023-05-06T02:33:01.164Z,0.00
2023-05-06T02:34:01.116Z,0.00
2023-05-06T02:35:01.835Z,0.00
2023-05-06T02:36:01.093Z,0.00
2023-05-06T02:37:01.808Z,0.00
2023-05-06T02:38:01.126Z,0.00
2023-05-06T02:39:01.021Z,0.00
2023-05-06T02:40:00.999Z,0.00
2023-05-06T02:41:01.258Z,0.00
2023-05-06T02:42:00.981Z,0.00
2023-05-06T02:43:00.994Z,0.00
2023-05-06T02:44:00.986Z,0.00
2023-05-06T02:45:00.944Z,0.00
2023-05-06T02:46:01.004Z,0.00
2023-05-06T02:47:00.942Z,0.00
2023-05-06T02:48:01.017Z,0.00
2023-05-06T02:49:00.921Z,0.00
2023-05-06T02:50:00.906Z,0.00
2023-05-06T02:51:00.884Z,0.00
2023-05-06T02:52:00.929Z,0.00
2023-05-06T02:53:00.857Z,0.00
2023-05-06T02:54:00.827Z,0.00
2023-05-06T02:55:00.853Z,0.00
2023-05-06T02:56:00.801Z,0.00
2023-05-06T02:57:00.806Z,0.00
2023-05-06T02:58:00.778Z,0.00
2023-05-06T02:59:00.755Z,0.00
2023-05-06T03:00:00.772Z,0.00
2023-05-06T03:01:00.765Z,0.00
2023-05-06T03:02:00.730Z,0.00
2023-05-06T03:03:00.781Z,0.00
2023-05-06T03:04:00.731Z,0.00
2023-05-06T03:05:00.737Z,0.00
2023-05-06T03:06:00.703Z,0.00
2023-05-06T03:07:00.683Z,0.00
2023-05-06T03:08:00.645Z,0.00
2023-05-06T03:09:00.634Z,0.00
2023-05-06T03:10:00.612Z,0.00
2023-05-06T03:11:00.634Z,0.00
2023-05-06T03:12:00.604Z,0.00
2023-05-06T03:13:00.612Z,0.00
2023-05-06T03:14:00.578Z,0.00
2023-05-06T03:15:00.560Z,0.00
2023-05-06T03:16:00.564Z,0.00
2023-05-06T03:17:00.582Z,0.00
2023-05-06T03:18:00.539Z,0.00
2023-05-06T03:19:00.508Z,0.00
2023-05-06T03:20:00.489Z,0.00
2023-05-06T03:21:00.540Z,0.00
2023-05-06T03:22:00.496Z,0.00
2023-05-06T03:23:00.453Z,0.00
2023-05-06T03:24:00.446Z,0.00
2023-05-06T03:25:00.438Z,0.00
2023-05-06T03:26:00.404Z,0.00
2023-05-06T03:27:00.410Z,0.00
2023-05-06T03:28:00.374Z,0.00
2023-05-06T03:29:00.371Z,0.00
2023-05-06T03:30:00.364Z,0.00
2023-05-06T03:31:00.360Z,0.00
2023-05-06T03:32:00.431Z,0.00
2023-05-06T03:33:00.350Z,0.00
2023-05-06T03:34:00.308Z,0.00
2023-05-06T03:35:00.302Z,0.00
2023-05-06T03:36:00.306Z,0.00
2023-05-06T03:37:00.312Z,0.00
2023-05-06T03:38:00.279Z,0.00
2023-05-06T03:39:00.260Z,0.00
2023-05-06T03:40:00.273Z,0.00
2023-05-06T03:41:00.218Z,0.00
2023-05-06T03:42:00.266Z,0.00
2023-05-06T03:43:00.208Z,0.00
2023-05-06T03:44:00.348Z,0.00
2023-05-06T03:45:00.218Z,0.00
2023-05-06T03:46:00.250Z,0.00
2023-05-06T03:47:00.174Z,0.00
2023-05-06T03:48:00.189Z,0.00
2023-05-06T03:49:00.131Z,0.00
2023-05-06T03:50:00.194Z,0.00
2023-05-06T03:51:00.098Z,0.00
2023-05-06T03:52:00.113Z,0.00
2023-05-06T03:53:00.066Z,0.00
2023-05-06T03:54:00.070Z,0.00
2023-05-06T03:55:00.090Z,0.00
2023-05-06T03:56:00.037Z,0.00
2023-05-06T03:57:00.009Z,0.00
2023-05-06T03:57:59.996Z,0.00
2023-05-06T03:59:00.013Z,0.00
2023-05-06T03:59:59.981Z,0.00
2023-05-06T04:00:59.972Z,0.00
2023-05-06T04:01:59.992Z,0.00
2023-05-06T04:02:59.990Z,0.00
2023-05-06T04:03:59.961Z,0.00
2023-05-06T04:04:59.909Z,0.00
2023-05-06T04:05:59.896Z,0.00
2023-05-06T04:06:59.875Z,0.00
2023-05-06T04:07:59.919Z,0.00
2023-05-06T04:08:59.885Z,0.00
2023-05-06T04:09:59.844Z,0.00
2023-05-06T04:10:59.841Z,0.00
2023-05-06T04:11:59.830Z,0.00
2023-05-06T04:12:59.852Z,0.00
2023-05-06T04:13:59.794Z,0.00
2023-05-06T04:14:59.806Z,0.00
2023-05-06T04:15:59.814Z,0.00
2023-05-06T04:16:59.766Z,0.00
2023-05-06T04:17:59.756Z,0.00
2023-05-06T04:18:59.723Z,0.00
2023-05-06T04:19:59.698Z,0.00
2023-05-06T04:20:59.768Z,0.00
2023-05-06T04:21:59.685Z,0.00
2023-05-06T04:22:59.686Z,0.00
2023-05-06T04:23:59.676Z,0.00
2023-05-06T04:24:59.643Z,0.00
2023-05-06T04:25:59.682Z,0.00
2023-05-06T04:26:59.625Z,0.00
2023-05-06T04:27:59.632Z,0.00
2023-05-06T04:28:59.860Z,0.00
2023-05-06T04:29:59.597Z,0.00
2023-05-06T04:30:59.577Z,5.62
2023-05-06T04:31:59.633Z,5.62
2023-05-06T04:32:59.605Z,5.62
2023-05-06T04:33:59.535Z,5.62
2023-05-06T04:34:59.536Z,5.62
2023-05-06T04:35:59.547Z,5.62
2023-05-06T04:36:59.527Z,5.62
2023-05-06T04:37:59.497Z,5.62
2023-05-06T04:38:59.477Z,5.62
2023-05-06T04:39:59.453Z,5.62
2023-05-06T04:40:59.443Z,5.62
2023-05-06T04:41:59.424Z,5.62
2023-05-06T04:42:59.481Z,5.62
2023-05-06T04:43:59.422Z,5.62
2023-05-06T04:44:59.398Z,5.62
2023-05-06T04:45:59.414Z,5.62
2023-05-06T04:46:59.363Z,5.62
2023-05-06T04:47:59.415Z,5.62
2023-05-06T04:48:59.366Z,5.62
2023-05-06T04:49:59.346Z,5.62
2023-05-06T04:50:59.345Z,5.62
2023-05-06T04:51:59.314Z,5.62
2023-05-06T04:52:59.313Z,5.62
2023-05-06T04:53:59.297Z,5.62
2023-05-06T04:54:59.273Z,5.62
2023-05-06T04:55:59.251Z,5.62
2023-05-06T04:56:59.277Z,5.62
2023-05-06T04:57:59.219Z,5.62
2023-05-06T04:58:59.229Z,5.62
2023-05-06T04:59:59.223Z,5.62
2023-05-06T05:00:59.214Z,5.62
2023-05-06T05:01:59.261Z,5.62
2023-05-06T05:02:59.279Z,5.62
2023-05-06T05:03:59.174Z,5.62
2023-05-06T05:04:59.142Z,5.62
2023-05-06T05:05:59.111Z,5.62
2023-05-06T05:06:59.109Z,11.25
2023-05-06T05:07:59.097Z,11.25
2023-05-06T05:08:59.788Z,11.25
2023-05-06T05:09:59.076Z,11.25
2023-05-06T05:10:59.248Z,11.25
2023-05-06T05:11:59.050Z,11.25
2023-05-06T05:12:59.084Z,11.25
2023-05-06T05:14:01.669Z,11.25
2023-05-06T05:14:59.031Z,11.25
2023-05-06T05:15:58.991Z,11.25
2023-05-06T05:16:59.049Z,11.25
2023-05-06T05:17:59.009Z,16.88
2023-05-06T05:19:01.485Z,16.88
2023-05-06T05:19:58.950Z,16.88
2023-05-06T05:20:59.052Z,16.88
2023-05-06T05:21:58.958Z,16.88
2023-05-06T05:22:58.903Z,16.88
2023-05-06T05:23:58.906Z,16.88
2023-05-06T05:24:58.876Z,16.88
2023-05-06T05:25:58.918Z,22.50
2023-05-06T05:26:58.875Z,22.50
2023-05-06T05:27:58.856Z,22.50
2023-05-06T05:28:58.833Z,22.50
2023-05-06T05:29:58.811Z,28.12
2023-05-06T05:30:58.837Z,28.12
2023-05-06T05:31:58.818Z,28.12
2023-05-06T05:32:58.865Z,33.75
2023-05-06T05:33:58.757Z,33.75
2023-05-06T05:34:58.749Z,33.75
2023-05-06T05:35:58.750Z,33.75
2023-05-06T05:36:58.778Z,33.75
2023-05-06T05:37:58.710Z,39.38
2023-05-06T05:38:58.696Z,39.38
2023-05-06T05:39:58.696Z,39.38
2023-05-06T05:40:58.669Z,39.38
2023-05-06T05:41:58.676Z,39.38
2023-05-06T05:42:58.694Z,39.38
2023-05-06T05:43:58.636Z,39.38
2023-05-06T05:44:58.653Z,39.38
2023-05-06T05:45:58.620Z,39.38
2023-05-06T05:46:58.617Z,45.00
2023-05-06T05:47:58.635Z,45.00
2023-05-06T05:48:58.569Z,39.38
2023-05-06T05:49:58.580Z,39.38
2023-05-06T05:50:58.534Z,39.38
2023-05-06T05:51:58.521Z,39.38
2023-05-06T05:52:58.513Z,39.38
2023-05-06T05:53:58.524Z,39.38
2023-05-06T05:54:58.544Z,45.00
2023-05-06T05:55:58.472Z,45.00
2023-05-06T05:56:58.460Z,45.00
2023-05-06T05:57:58.438Z,45.00
2023-05-06T05:58:58.438Z,45.00
2023-05-06T05:59:58.457Z,45.00
2023-05-06T06:00:58.409Z,45.00
2023-05-06T06:01:58.396Z,45.00
2023-05-06T06:02:58.476Z,45.00
2023-05-06T06:03:58.546Z,45.00
2023-05-06T06:04:58.441Z,45.00
2023-05-06T06:05:58.360Z,45.00
2023-05-06T06:06:58.340Z,45.00
2023-05-06T06:07:58.325Z,50.62
2023-05-06T06:08:58.322Z,50.62
2023-05-06T06:09:58.306Z,50.62
2023-05-06T06:10:58.297Z,50.62
2023-05-06T06:11:58.269Z,50.62
2023-05-06T06:12:58.323Z,50.62
2023-05-06T06:13:58.239Z,50.62
2023-05-06T06:14:58.261Z,50.62
2023-05-06T06:15:58.297Z,50.62
2023-05-06T06:16:58.965Z,50.62
2023-05-06T06:17:58.241Z,56.25
2023-05-06T06:18:58.183Z,50.62
2023-05-06T06:19:58.165Z,50.62
2023-05-06T06:20:58.189Z,50.62
2023-05-06T06:21:58.145Z,50.62
2023-05-06T06:22:58.126Z,50.62
2023-05-06T06:23:58.158Z,50.62
2023-05-06T06:24:58.105Z,50.62
2023-05-06T06:25:58.075Z,50.62
2023-05-06T06:26:58.273Z,50.62
2023-05-06T06:27:58.082Z,50.62
2023-05-06T06:28:58.045Z,50.62
2023-05-06T06:29:58.041Z,50.62
2023-05-06T06:30:58.030Z,45.00
2023-05-06T06:31:58.059Z,45.00
2023-05-06T06:32:58.034Z,56.25
2023-05-06T06:33:58.007Z,56.25
2023-05-06T06:34:57.981Z,56.25
2023-05-06T06:35:57.953Z,45.00
2023-05-06T06:36:57.941Z,39.38
2023-05-06T06:37:57.973Z,45.00
2023-05-06T06:38:57.924Z,50.62
2023-05-06T06:39:57.898Z,56.25
2023-05-06T06:40:57.896Z,56.25
2023-05-06T06:41:57.879Z,61.88
2023-05-06T06:42:57.865Z,61.88
2023-05-06T06:43:57.901Z,61.88
2023-05-06T06:44:57.848Z,61.88
2023-05-06T06:45:57.852Z,61.88
2023-05-06T06:46:57.852Z,61.88
2023-05-06T06:47:57.888Z,61.88
2023-05-06T06:48:57.784Z,61.88
2023-05-06T06:49:57.829Z,61.88
2023-05-06T06:50:57.769Z,61.88
2023-05-06T06:51:57.773Z,61.88
2023-05-06T06:52:57.732Z,61.88
2023-05-06T06:53:57.718Z,61.88
2023-05-06T06:54:57.696Z,56.25
2023-05-06T06:55:57.710Z,61.88
2023-05-06T06:56:57.797Z,61.88
2023-05-06T06:57:57.677Z,61.88
2023-05-06T06:58:57.658Z,61.88
2023-05-06T06:59:57.667Z,61.88
2023-05-06T07:00:57.663Z,61.88
2023-05-06T07:01:57.604Z,61.88
2023-05-06T07:02:57.652Z,61.88
2023-05-06T07:03:57.636Z,61.88
2023-05-06T07:04:57.577Z,67.50
2023-05-06T07:05:57.583Z,67.50
2023-05-06T07:06:57.629Z,67.50
2023-05-06T07:07:57.571Z,67.50
2023-05-06T07:08:57.537Z,67.50
2023-05-06T07:09:57.567Z,73.12
2023-05-06T07:10:57.540Z,73.12
2023-05-06T07:11:57.496Z,73.12
2023-05-06T07:12:57.586Z,73.12
2023-05-06T07:13:57.481Z,73.12
2023-05-06T07:14:57.490Z,73.12
2023-05-06T07:15:57.458Z,73.12
2023-05-06T07:16:57.462Z,73.12
2023-05-06T07:17:57.539Z,73.12
2023-05-06T07:18:57.455Z,73.12
2023-05-06T07:19:57.398Z,73.12
2023-05-06T07:20:57.396Z,73.12
2023-05-06T07:21:57.365Z,73.12
2023-05-06T07:22:57.361Z,73.12
2023-05-06T07:23:57.356Z,78.75
2023-05-06T07:24:57.324Z,78.75
2023-05-06T07:25:57.312Z,78.75
2023-05-06T07:26:57.315Z,78.75
2023-05-06T07:27:57.280Z,78.75
2023-05-06T07:28:57.468Z,78.75
2023-05-06T07:29:57.257Z,78.75
2023-05-06T07:30:57.340Z,78.75
2023-05-06T07:31:57.220Z,78.75
2023-05-06T07:32:57.276Z,78.75
2023-05-06T07:33:57.215Z,78.75
2023-05-06T07:34:57.227Z,78.75
2023-05-06T07:35:57.181Z,78.75
2023-05-06T07:36:57.177Z,78.75
2023-05-06T07:37:57.155Z,84.38
2023-05-06T07:38:57.155Z,84.38
2023-05-06T07:39:57.138Z,78.75
2023-05-06T07:40:57.204Z,78.75
2023-05-06T07:41:57.103Z,78.75
2023-05-06T07:42:57.106Z,84.38
2023-05-06T07:43:57.076Z,84.38
2023-05-06T07:44:57.063Z,78.75
2023-05-06T07:45:57.071Z,78.75
2023-05-06T07:46:57.100Z,84.38
2023-05-06T07:47:57.124Z,84.38
2023-05-06T07:48:57.020Z,84.38
2023-05-06T07:49:57.000Z,84.38
2023-05-06T07:50:58.907Z,84.38
2023-05-06T07:51:56.970Z,84.38
2023-05-06T07:52:56.973Z,84.38
2023-05-06T07:53:56.943Z,84.38
2023-05-06T07:54:56.938Z,90.00
2023-05-06T07:55:56.927Z,90.00
2023-05-06T07:56:56.933Z,90.00
2023-05-06T07:57:56.887Z,90.00
2023-05-06T07:58:56.874Z,90.00
2023-05-06T07:59:56.876Z,90.00
2023-05-06T08:00:56.877Z,90.00
2023-05-06T08:01:56.919Z,90.00
2023-05-06T08:02:56.887Z,90.00
2023-05-06T08:03:57.047Z,90.00
2023-05-06T08:04:56.851Z,90.00
2023-05-06T08:05:56.793Z,90.00
2023-05-06T08:06:56.803Z,95.62
2023-05-06T08:07:56.794Z,95.62
2023-05-06T08:08:56.789Z,95.62
2023-05-06T08:09:56.754Z,95.62
2023-05-06T08:10:56.705Z,95.62
2023-05-06T08:11:56.723Z,95.62
2023-05-06T08:12:56.840Z,95.62
2023-05-06T08:13:56.682Z,95.62
2023-05-06T08:14:56.779Z,95.62
2023-05-06T08:15:56.683Z,95.62
2023-05-06T08:16:56.651Z,95.62
2023-05-06T08:17:57.599Z,95.62
2023-05-06T08:18:56.638Z,95.62
2023-05-06T08:19:56.600Z,95.62
2023-05-06T08:20:56.614Z,101.25
2023-05-06T08:21:56.578Z,101.25
2023-05-06T08:22:56.590Z,101.25
2023-05-06T08:23:56.536Z,101.25
2023-05-06T08:24:56.534Z,101.25
2023-05-06T08:25:56.525Z,101.25
2023-05-06T08:26:56.526Z,101.25
2023-05-06T08:27:56.490Z,101.25
2023-05-06T08:28:56.497Z,95.62
2023-05-06T08:29:56.553Z,101.25
2023-05-06T08:30:56.464Z,28.12
2023-05-06T08:31:56.493Z,33.75
2023-05-06T08:32:56.487Z,50.62
2023-05-06T08:33:56.463Z,67.50
2023-05-06T08:34:56.436Z,73.12
2023-05-06T08:35:56.400Z,61.88
2023-05-06T08:36:56.390Z,39.38
2023-05-06T08:37:56.387Z,106.88
2023-05-06T08:38:56.360Z,106.88
2023-05-06T08:39:57.578Z,106.88
2023-05-06T08:40:56.355Z,106.88
2023-05-06T08:41:56.327Z,28.12
2023-05-06T08:42:56.309Z,33.75
2023-05-06T08:43:56.348Z,39.38
2023-05-06T08:44:56.303Z,33.75
2023-05-06T08:45:56.363Z,33.75
2023-05-06T08:46:56.296Z,33.75
2023-05-06T08:47:56.364Z,39.38
2023-05-06T08:48:56.258Z,112.50
2023-05-06T08:49:56.229Z,106.88
2023-05-06T08:50:56.196Z,84.38
2023-05-06T08:51:56.194Z,118.12
2023-05-06T08:52:56.194Z,118.12
2023-05-06T08:53:56.196Z,118.12
2023-05-06T08:54:56.187Z,118.12
2023-05-06T08:55:56.141Z,123.75
2023-05-06T08:56:56.127Z,123.75
2023-05-06T08:57:56.114Z,123.75
2023-05-06T08:58:56.100Z,56.25
2023-05-06T08:59:56.099Z,45.00
2023-05-06T09:00:56.120Z,45.00
2023-05-06T09:01:56.094Z,45.00
2023-05-06T09:02:56.139Z,118.12
2023-05-06T09:03:56.043Z,118.12
2023-05-06T09:04:56.095Z,118.12
2023-05-06T09:05:56.011Z,118.12
2023-05-06T09:06:55.999Z,118.12
2023-05-06T09:07:55.980Z,118.12
2023-05-06T09:08:55.980Z,123.75
2023-05-06T09:09:55.960Z,118.12
2023-05-06T09:10:55.974Z,118.12
2023-05-06T09:11:55.931Z,118.12
2023-05-06T09:12:55.947Z,118.12
2023-05-06T09:13:55.907Z,123.75
2023-05-06T09:14:55.904Z,118.12
2023-05-06T09:15:55.884Z,118.12
2023-05-06T09:16:55.971Z,118.12
2023-05-06T09:17:55.931Z,106.88
2023-05-06T09:18:55.853Z,78.75
2023-05-06T09:19:55.846Z,118.12
2023-05-06T09:20:55.826Z,45.00
2023-05-06T09:21:55.813Z,45.00
2023-05-06T09:22:55.795Z,45.00
2023-05-06T09:23:55.793Z,56.25
2023-05-06T09:24:55.777Z,112.50
2023-05-06T09:25:55.787Z,118.12
2023-05-06T09:26:55.735Z,56.25
2023-05-06T09:27:55.743Z,33.75
2023-05-06T09:28:55.719Z,33.75
2023-05-06T09:29:55.698Z,39.38
2023-05-06T09:30:55.901Z,101.25
2023-05-06T09:31:55.690Z,118.12
2023-05-06T09:32:55.751Z,118.12
2023-05-06T09:33:55.642Z,118.12
2023-05-06T09:34:55.644Z,118.12
2023-05-06T09:35:55.646Z,112.50
2023-05-06T09:36:55.613Z,112.50
2023-05-06T09:37:55.628Z,118.12
2023-05-06T09:38:55.600Z,118.12
2023-05-06T09:39:55.578Z,118.12
2023-05-06T09:40:55.569Z,118.12
2023-05-06T09:41:55.556Z,118.12
2023-05-06T09:42:55.559Z,112.50
2023-05-06T09:43:55.559Z,112.50
2023-05-06T09:44:55.504Z,106.88
2023-05-06T09:45:55.531Z,112.50
2023-05-06T09:46:55.485Z,112.50
2023-05-06T09:47:55.489Z,112.50
2023-05-06T09:48:55.506Z,118.12
2023-05-06T09:49:55.450Z,118.12
2023-05-06T09:50:55.510Z,112.50
2023-05-06T09:51:55.423Z,112.50
2023-05-06T09:52:55.447Z,112.50
2023-05-06T09:53:55.408Z,118.12
2023-05-06T09:54:55.382Z,123.75
2023-05-06T09:55:55.372Z,123.75
2023-05-06T09:56:55.385Z,123.75
2023-05-06T09:57:55.340Z,123.75
2023-05-06T09:58:55.327Z,123.75
2023-05-06T09:59:55.307Z,129.38
2023-05-06T10:00:55.318Z,123.75
2023-05-06T10:01:55.328Z,123.75
2023-05-06T10:02:55.406Z,123.75
2023-05-06T10:03:55.359Z,129.38
2023-05-06T10:04:55.494Z,61.88
2023-05-06T10:05:55.274Z,56.25
2023-05-06T10:06:55.244Z,61.88
2023-05-06T10:07:55.268Z,56.25
2023-05-06T10:08:55.214Z,50.62
2023-05-06T10:09:55.216Z,112.50
2023-05-06T10:10:55.181Z,129.38
2023-05-06T10:11:55.180Z,129.38
2023-05-06T10:12:55.204Z,129.38
2023-05-06T10:13:55.127Z,135.00
2023-05-06T10:14:55.140Z,129.38
2023-05-06T10:15:55.139Z,129.38
2023-05-06T10:16:55.852Z,135.00
2023-05-06T10:17:55.233Z,123.75
2023-05-06T10:18:55.070Z,123.75
2023-05-06T10:19:55.065Z,123.75
2023-05-06T10:20:55.053Z,129.38
2023-05-06T10:21:55.070Z,123.75
2023-05-06T10:22:55.028Z,123.75
2023-05-06T10:23:55.009Z,123.75
2023-05-06T10:24:55.008Z,45.00
2023-05-06T10:25:54.973Z,61.88
2023-05-06T10:26:54.986Z,45.00
2023-05-06T10:27:54.977Z,45.00
2023-05-06T10:28:54.976Z,45.00
2023-05-06T10:29:54.924Z,45.00
2023-05-06T10:30:54.905Z,50.62
2023-05-06T10:31:54.978Z,50.62
2023-05-06T10:32:54.929Z,56.25
2023-05-06T10:33:54.959Z,101.25
2023-05-06T10:34:54.871Z,135.00
2023-05-06T10:35:55.588Z,140.62
2023-05-06T10:36:54.832Z,140.62
2023-05-06T10:37:54.826Z,146.25
2023-05-06T10:38:54.930Z,151.88
2023-05-06T10:39:54.792Z,157.50
2023-05-06T10:40:54.792Z,157.50
2023-05-06T10:41:54.763Z,140.62
2023-05-06T10:42:54.799Z,129.38
2023-05-06T10:43:54.761Z,129.38
2023-05-06T10:44:54.760Z,45.00
2023-05-06T10:45:54.729Z,45.00
2023-05-06T10:46:54.737Z,84.38
2023-05-06T10:47:54.722Z,135.00
2023-05-06T10:48:54.686Z,146.25
2023-05-06T10:49:54.672Z,151.88
2023-05-06T10:50:54.681Z,45.00
2023-05-06T10:51:54.638Z,50.62
2023-05-06T10:52:54.636Z,157.50
2023-05-06T10:53:54.641Z,67.50
2023-05-06T10:54:54.654Z,50.62
2023-05-06T10:55:54.598Z,50.62
2023-05-06T10:56:54.586Z,50.62
2023-05-06T10:57:54.557Z,56.25
2023-05-06T10:58:54.552Z,56.25
2023-05-06T10:59:54.548Z,163.12
2023-05-06T11:00:54.622Z,56.25
2023-05-06T11:01:54.503Z,50.62
2023-05-06T11:02:54.540Z,50.62
2023-05-06T11:03:54.525Z,50.62
2023-05-06T11:04:54.516Z,56.25
2023-05-06T11:05:54.519Z,140.62
2023-05-06T11:06:54.448Z,67.50
2023-05-06T11:07:54.454Z,67.50
2023-05-06T11:08:54.424Z,106.88
2023-05-06T11:09:54.408Z,146.25
2023-05-06T11:10:54.496Z,67.50
2023-05-06T11:11:54.430Z,61.88
2023-05-06T11:12:54.394Z,56.25
2023-05-06T11:13:55.092Z,56.25
2023-05-06T11:14:54.350Z,61.88
2023-05-06T11:15:54.343Z,61.88
2023-05-06T11:16:54.355Z,67.50
2023-05-06T11:17:54.384Z,101.25
2023-05-06T11:18:54.301Z,157.50
2023-05-06T11:19:54.308Z,146.25
2023-05-06T11:20:54.267Z,146.25
2023-05-06T11:21:54.252Z,157.50
2023-05-06T11:22:54.428Z,157.50
2023-05-06T11:23:54.275Z,151.88
2023-05-06T11:24:54.245Z,146.25
2023-05-06T11:25:54.211Z,140.62
2023-05-06T11:26:54.184Z,135.00
2023-05-06T11:27:54.178Z,146.25
2023-05-06T11:28:54.165Z,151.88
2023-05-06T11:29:54.176Z,151.88
2023-05-06T11:30:54.158Z,157.50
2023-05-06T11:31:54.168Z,151.88
2023-05-06T11:32:54.173Z,151.88
2023-05-06T11:33:54.109Z,84.38
2023-05-06T11:34:54.320Z,61.88
2023-05-06T11:35:54.068Z,95.62
2023-05-06T11:36:54.074Z,112.50
2023-05-06T11:37:54.087Z,151.88
2023-05-06T11:38:54.041Z,61.88
2023-05-06T11:39:54.026Z,67.50
2023-05-06T11:40:54.078Z,61.88
2023-05-06T11:41:54.007Z,106.88
2023-05-06T11:42:54.004Z,73.12
2023-05-06T11:43:53.990Z,146.25
2023-05-06T11:44:53.958Z,118.12
2023-05-06T11:45:54.020Z,146.25
2023-05-06T11:46:53.939Z,146.25
2023-05-06T11:47:53.955Z,140.62
2023-05-06T11:48:53.927Z,140.62
2023-05-06T11:49:53.899Z,140.62
2023-05-06T11:50:53.920Z,112.50
2023-05-06T11:51:53.888Z,140.62
2023-05-06T11:52:53.860Z,140.62
2023-05-06T11:53:53.846Z,45.00
2023-05-06T11:54:53.840Z,146.25
2023-05-06T11:55:53.819Z,135.00
2023-05-06T11:56:53.848Z,129.38
2023-05-06T11:57:53.803Z,50.62
2023-05-06T11:58:53.783Z,78.75
2023-05-06T11:59:53.792Z,50.62
2023-05-06T12:00:53.764Z,56.25
2023-05-06T12:01:53.757Z,56.25
2023-05-06T12:02:53.815Z,56.25
2023-05-06T12:03:53.884Z,61.88
2023-05-06T12:04:53.842Z,146.25
2023-05-06T12:05:53.738Z,140.62
2023-05-06T12:06:53.692Z,151.88
2023-05-06T12:07:53.674Z,151.88
2023-05-06T12:08:53.687Z,151.88
2023-05-06T12:09:53.647Z,146.25
2023-05-06T12:10:53.669Z,140.62
2023-05-06T12:11:53.622Z,146.25
2023-05-06T12:12:53.643Z,135.00
2023-05-06T12:13:53.609Z,123.75
2023-05-06T12:14:53.590Z,56.25
2023-05-06T12:15:53.651Z,61.88
2023-05-06T12:16:55.969Z,61.88
2023-05-06T12:17:53.586Z,56.25
2023-05-06T12:18:53.541Z,56.25
2023-05-06T12:19:53.533Z,50.62
2023-05-06T12:20:53.518Z,61.88
2023-05-06T12:21:53.526Z,112.50
2023-05-06T12:22:55.428Z,101.25
2023-05-06T12:23:53.540Z,90.00
2023-05-06T12:24:53.653Z,118.12
2023-05-06T12:25:53.449Z,118.12
2023-05-06T12:26:53.438Z,146.25
2023-05-06T12:27:53.425Z,106.88
2023-05-06T12:28:53.440Z,90.00
2023-05-06T12:29:53.435Z,84.38
2023-05-06T12:30:53.385Z,84.38
2023-05-06T12:31:53.460Z,106.88
2023-05-06T12:32:53.384Z,90.00
2023-05-06T12:33:54.666Z,95.62
2023-05-06T12:34:53.343Z,95.62
2023-05-06T12:35:53.517Z,95.62
2023-05-06T12:36:53.329Z,95.62
2023-05-06T12:37:53.320Z,84.38
2023-05-06T12:38:53.297Z,95.62
2023-05-06T12:39:53.292Z,84.38
2023-05-06T12:40:53.264Z,78.75
2023-05-06T12:41:53.273Z,78.75
2023-05-06T12:42:53.228Z,78.75
2023-05-06T12:43:53.231Z,78.75
2023-05-06T12:44:53.219Z,84.38
2023-05-06T12:45:53.228Z,95.62
2023-05-06T12:46:53.212Z,90.00
2023-05-06T12:47:53.275Z,84.38
2023-05-06T12:48:53.177Z,101.25
2023-05-06T12:49:53.181Z,101.25
2023-05-06T12:50:53.134Z,95.62
2023-05-06T12:51:53.127Z,101.25
2023-05-06T12:52:53.133Z,118.12
2023-05-06T12:53:53.105Z,90.00
2023-05-06T12:54:53.195Z,73.12
2023-05-06T12:55:53.066Z,67.50
2023-05-06T12:56:53.048Z,67.50